createdAt,value
2023-01-15T00:01:24.299Z,100.00
2023-01-15T00:03:52.430Z,100.00
2023-01-15T00:06:19.902Z,100.00
2023-01-15T00:08:47.248Z,100.00
2023-01-15T00:11:14.364Z,100.00
2023-01-15T00:13:41.291Z,100.00
2023-01-15T00:16:12.017Z,100.00
2023-01-15T00:18:38.951Z,100.00
2023-01-15T00:21:07.785Z,100.00
2023-01-15T00:23:53.287Z,100.00
2023-01-15T00:26:41.014Z,100.00
2023-01-15T00:29:07.608Z,100.00
2023-01-15T00:31:36.045Z,100.00
2023-01-15T00:34:03.357Z,100.00
2023-01-15T00:36:29.829Z,100.00
2023-01-15T00:38:56.694Z,100.00
2023-01-15T00:41:23.419Z,100.00
2023-01-15T00:43:50.254Z,100.00
2023-01-15T00:46:16.871Z,100.00
2023-01-15T00:48:44.335Z,100.00
2023-01-15T00:51:10.965Z,100.00
2023-01-15T00:53:37.546Z,100.00
2023-01-15T00:56:04.276Z,100.00
2023-01-15T00:58:30.815Z,100.00
2023-01-15T01:00:59.651Z,100.00
2023-01-15T01:03:26.714Z,100.00
2023-01-15T01:05:53.266Z,100.00
2023-01-15T01:08:20.474Z,100.00
2023-01-15T01:10:47.009Z,100.00
2023-01-15T01:13:13.578Z,100.00
2023-01-15T01:15:40.086Z,100.00
2023-01-15T01:18:06.908Z,100.00
2023-01-15T01:20:34.241Z,100.00
2023-01-15T01:23:00.786Z,100.00
2023-01-15T01:25:27.482Z,100.00
2023-01-15T01:27:54.069Z,100.00
2023-01-15T01:30:20.825Z,100.00
2023-01-15T01:32:47.364Z,100.00
2023-01-15T01:35:13.913Z,100.00
2023-01-15T01:37:40.471Z,100.00
2023-01-15T01:40:07.528Z,100.00
2023-01-15T01:42:34.078Z,100.00
2023-01-15T01:45:25.279Z,100.00
2023-01-15T01:47:57.809Z,100.00
2023-01-15T01:50:26.083Z,100.00
2023-01-15T01:53:03.932Z,100.00
2023-01-15T01:55:31.998Z,100.00
2023-01-15T01:58:00.793Z,100.00
2023-01-15T02:00:30.072Z,100.00
2023-01-15T02:02:57.186Z,100.00
2023-01-15T02:05:30.784Z,100.00
2023-01-15T02:07:57.643Z,100.00
2023-01-15T02:10:24.363Z,100.00
2023-01-15T02:13:16.291Z,100.00
2023-01-15T02:15:48.539Z,100.00
2023-01-15T02:18:21.147Z,100.00
2023-01-15T02:20:57.236Z,100.00
2023-01-15T02:23:50.703Z,100.00
2023-01-15T02:27:06.304Z,100.00
2023-01-15T02:29:58.979Z,100.00
2023-01-15T02:32:50.624Z,100.00
2023-01-15T02:35:36.396Z,100.00
2023-01-15T02:38:08.488Z,100.00
2023-01-15T02:40:37.427Z,100.00
2023-01-15T02:43:06.559Z,100.00
2023-01-15T02:45:36.996Z,100.00
2023-01-15T02:48:13.829Z,100.00
2023-01-15T02:50:45.477Z,100.00
2023-01-15T02:53:17.894Z,100.00
2023-01-15T02:55:49.242Z,100.00
2023-01-15T02:58:25.506Z,100.00
2023-01-15T03:00:56.436Z,100.00
2023-01-15T03:03:27.173Z,100.00
2023-01-15T03:06:08.233Z,100.00
2023-01-15T03:08:35.931Z,100.00
2023-01-15T03:11:06.286Z,100.00
2023-01-15T03:14:06.346Z,100.00
2023-01-15T03:16:39.920Z,100.00
2023-01-15T03:19:20.824Z,100.00
2023-01-15T03:22:04.893Z,100.00
2023-01-15T03:24:44.532Z,100.00
2023-01-15T03:27:11.937Z,100.00
2023-01-15T03:29:50.528Z,100.00
2023-01-15T03:32:20.016Z,100.00
2023-01-15T03:34:51.234Z,100.00
2023-01-15T03:37:21.618Z,100.00
2023-01-15T03:39:49.324Z,100.00
2023-01-15T03:42:31.699Z,100.00
2023-01-15T03:45:33.628Z,100.00
2023-01-15T03:48:08.714Z,100.00
2023-01-15T03:50:59.507Z,100.00
2023-01-15T03:53:42.018Z,100.00
2023-01-15T03:56:19.191Z,100.00
2023-01-15T03:59:02.373Z,100.00
2023-01-15T04:01:47.003Z,100.00
2023-01-15T04:04:14.880Z,100.00
2023-01-15T04:06:43.421Z,100.00
2023-01-15T04:09:12.710Z,100.00
2023-01-15T04:11:39.323Z,100.00
2023-01-15T04:14:07.756Z,100.00
2023-01-15T04:16:49.749Z,100.00
2023-01-15T04:19:17.253Z,100.00
2023-01-15T04:21:51.669Z,100.00
2023-01-15T04:24:18.259Z,100.00
2023-01-15T04:26:44.870Z,100.00
2023-01-15T04:29:11.484Z,100.00
2023-01-15T04:31:38.364Z,100.00
2023-01-15T04:34:05.295Z,100.00
2023-01-15T04:36:35.373Z,100.00
2023-01-15T04:39:05.604Z,100.00
2023-01-15T04:41:50.887Z,100.00
2023-01-15T04:44:17.459Z,100.00
2023-01-15T04:46:46.255Z,100.00
2023-01-15T04:49:16.496Z,100.00
2023-01-15T04:51:43.791Z,100.00
2023-01-15T04:54:13.128Z,100.00
2023-01-15T04:56:44.233Z,100.00
2023-01-15T04:59:11.524Z,100.00
2023-01-15T05:01:38.748Z,100.00
2023-01-15T05:04:05.804Z,100.00
2023-01-15T05:06:33.060Z,100.00
2023-01-15T05:09:01.334Z,100.00
2023-01-15T05:11:28.668Z,100.00
2023-01-15T05:13:55.896Z,100.00
2023-01-15T05:16:27.486Z,100.00
2023-01-15T05:18:57.699Z,100.00
2023-01-15T05:21:32.499Z,100.00
2023-01-15T05:24:01.545Z,100.00
2023-01-15T05:26:30.544Z,100.00
2023-01-15T05:28:58.915Z,100.00
2023-01-15T05:31:26.786Z,100.00
2023-01-15T05:33:55.251Z,100.00
2023-01-15T05:36:25.399Z,100.00
2023-01-15T05:38:53.535Z,100.00
2023-01-15T05:41:40.028Z,100.00
2023-01-15T05:44:09.775Z,100.00
2023-01-15T05:46:38.683Z,100.00
2023-01-15T05:49:08.363Z,100.00
2023-01-15T05:51:36.267Z,100.00
2023-01-15T05:54:04.668Z,100.00
2023-01-15T05:56:31.984Z,100.00
2023-01-15T05:58:58.663Z,100.00
2023-01-15T06:01:25.507Z,100.00
2023-01-15T06:03:53.724Z,100.00
2023-01-15T06:06:20.575Z,100.00
2023-01-15T06:08:47.423Z,100.00
2023-01-15T06:11:14.026Z,100.00
2023-01-15T06:13:40.906Z,100.00
2023-01-15T06:16:10.869Z,100.00
2023-01-15T06:18:39.496Z,100.00
2023-01-15T06:21:08.052Z,100.00
2023-01-15T06:23:36.657Z,100.00
2023-01-15T06:26:05.485Z,100.00
2023-01-15T06:28:32.478Z,100.00
2023-01-15T06:30:59.209Z,100.00
2023-01-15T06:33:25.901Z,100.00
2023-01-15T06:35:52.475Z,100.00
2023-01-15T06:38:19.264Z,100.00
2023-01-15T06:40:45.878Z,100.00
2023-01-15T06:43:31.201Z,100.00
2023-01-15T06:46:33.201Z,100.00
2023-01-15T06:48:59.775Z,100.00
2023-01-15T06:51:26.437Z,100.00
2023-01-15T06:53:53.078Z,100.00
2023-01-15T06:56:19.725Z,100.00
2023-01-15T06:58:46.326Z,100.00
2023-01-15T07:01:15.986Z,100.00
2023-01-15T07:03:42.772Z,100.00
2023-01-15T07:06:11.681Z,100.00
2023-01-15T07:08:39.338Z,100.00
2023-01-15T07:11:07.913Z,100.00
2023-01-15T07:13:34.955Z,100.00
2023-01-15T07:16:02.937Z,100.00
2023-01-15T07:18:31.489Z,100.00
2023-01-15T07:20:59.032Z,100.00
2023-01-15T07:23:26.824Z,100.00
2023-01-15T07:25:54.126Z,100.00
2023-01-15T07:28:22.073Z,100.00
2023-01-15T07:30:48.701Z,100.00
2023-01-15T07:33:15.470Z,100.00
2023-01-15T07:35:42.386Z,100.00
2023-01-15T07:38:09.048Z,100.00
2023-01-15T07:40:35.663Z,100.00
2023-01-15T07:43:20.950Z,100.00
2023-01-15T07:46:07.317Z,100.00
2023-01-15T07:48:52.403Z,100.00
2023-01-15T07:51:19.214Z,100.00
2023-01-15T07:53:45.846Z,100.00
2023-01-15T07:56:12.728Z,100.00
2023-01-15T07:58:39.324Z,100.00
2023-01-15T08:01:06.124Z,100.00
2023-01-15T08:03:32.777Z,100.00
2023-01-15T08:05:59.355Z,100.00
2023-01-15T08:08:39.239Z,100.00
2023-01-15T08:11:57.289Z,99.81
2023-01-15T08:14:55.517Z,98.85
2023-01-15T08:17:54.061Z,99.14
2023-01-15T08:20:38.828Z,98.36
2023-01-15T08:23:06.265Z,97.77
2023-01-15T08:25:33.787Z,96.72
2023-01-15T08:28:04.207Z,96.80
2023-01-15T08:30:38.731Z,98.29
2023-01-15T08:33:15.392Z,96.33
2023-01-15T08:35:50.909Z,94.59
2023-01-15T08:38:20.815Z,91.95
2023-01-15T08:41:00.341Z,91.20
2023-01-15T08:43:27.997Z,90.61
2023-01-15T08:45:59.929Z,91.40
2023-01-15T08:48:28.582Z,91.68
2023-01-15T08:50:55.583Z,92.09
2023-01-15T08:53:22.718Z,92.56
2023-01-15T08:55:49.384Z,92.14
2023-01-15T08:58:19.838Z,92.92
2023-01-15T09:00:46.663Z,93.60
2023-01-15T09:03:13.495Z,94.33
2023-01-15T09:05:40.134Z,94.75
2023-01-15T09:08:07.161Z,95.52
2023-01-15T09:10:34.779Z,96.12
2023-01-15T09:13:02.879Z,95.92
2023-01-15T09:15:31.600Z,97.01
2023-01-15T09:17:58.918Z,96.26
2023-01-15T09:20:26.240Z,96.52
2023-01-15T09:22:53.093Z,95.46
2023-01-15T09:25:20.222Z,96.24
2023-01-15T09:27:49.003Z,95.26
2023-01-15T09:30:20.558Z,95.99
2023-01-15T09:32:47.685Z,97.43
2023-01-15T09:35:14.921Z,95.97
2023-01-15T09:37:41.753Z,96.20
2023-01-15T09:40:21.248Z,96.70
2023-01-15T09:43:02.341Z,95.71
2023-01-15T09:45:37.526Z,95.60
2023-01-15T09:48:07.035Z,96.23
2023-01-15T09:51:18.727Z,95.13
2023-01-15T09:54:05.407Z,94.58
2023-01-15T09:56:35.425Z,94.16
2023-01-15T09:59:13.150Z,92.16
2023-01-15T10:01:41.151Z,90.23
2023-01-15T10:04:20.662Z,89.72
2023-01-15T10:06:55.183Z,89.25
2023-01-15T10:09:26.264Z,88.79
2023-01-15T10:12:21.082Z,90.02
2023-01-15T10:15:01.397Z,87.20
2023-01-15T10:17:39.656Z,87.26
2023-01-15T10:20:07.045Z,85.73
2023-01-15T10:22:48.172Z,83.97
2023-01-15T10:25:23.363Z,83.16
2023-01-15T10:27:51.837Z,82.46
2023-01-15T10:30:47.764Z,81.74
2023-01-15T10:33:32.524Z,81.65
2023-01-15T10:36:31.074Z,82.08
2023-01-15T10:39:21.216Z,81.64
2023-01-15T10:42:13.756Z,80.55
2023-01-15T10:45:04.756Z,81.12
2023-01-15T10:47:35.558Z,79.89
2023-01-15T10:50:13.070Z,79.68
2023-01-15T10:52:44.855Z,80.64
2023-01-15T10:55:25.847Z,80.04
2023-01-15T10:58:10.394Z,80.05
2023-01-15T11:00:39.841Z,80.06
2023-01-15T11:03:17.993Z,81.17
2023-01-15T11:05:46.714Z,79.69
2023-01-15T11:11:53.821Z,78.75
2023-01-15T11:14:38.715Z,79.54
2023-01-15T11:17:33.269Z,78.96
2023-01-15T11:20:00.143Z,79.32
2023-01-15T11:22:28.816Z,78.33
2023-01-15T11:24:59.326Z,78.62
2023-01-15T11:27:30.353Z,79.55
2023-01-15T11:29:59.762Z,78.79
2023-01-15T11:32:29.715Z,79.13
2023-01-15T11:34:58.762Z,79.84
2023-01-15T11:37:25.721Z,78.24
2023-01-15T11:39:57.707Z,78.15
2023-01-15T11:42:42.757Z,80.37
2023-01-15T11:45:38.198Z,78.75
2023-01-15T11:48:35.864Z,78.22
2023-01-15T11:51:08.502Z,77.62
2023-01-15T11:53:47.767Z,79.13
2023-01-15T11:56:24.679Z,78.92
2023-01-15T11:58:55.143Z,78.55
2023-01-15T12:02:01.702Z,77.93
2023-01-15T12:04:46.541Z,78.12
2023-01-15T12:07:14.321Z,78.33
2023-01-15T12:10:05.943Z,78.11
2023-01-15T12:13:23.309Z,77.13
2023-01-15T12:16:01.399Z,75.98
2023-01-15T12:18:37.300Z,74.86
2023-01-15T12:21:05.306Z,74.74
2023-01-15T12:23:45.094Z,75.88
2023-01-15T12:26:34.914Z,75.19
2023-01-15T12:29:01.520Z,75.34
2023-01-15T12:31:39.232Z,76.02
2023-01-15T12:34:21.926Z,73.54
2023-01-15T12:37:01.214Z,74.44
2023-01-15T12:39:36.692Z,74.79
2023-01-15T12:42:29.667Z,74.04
2023-01-15T12:45:01.038Z,74.83
2023-01-15T12:48:10.611Z,74.13
2023-01-15T12:50:44.840Z,75.11
2023-01-15T12:53:19.249Z,74.78
2023-01-15T12:55:53.727Z,75.01
2023-01-15T12:58:49.533Z,75.53
2023-01-15T13:01:29.142Z,76.21
2023-01-15T13:04:00.299Z,75.73
2023-01-15T13:06:28.659Z,75.43
2023-01-15T13:09:14.413Z,76.11
2023-01-15T13:11:40.998Z,76.60
2023-01-15T13:14:18.149Z,77.54
2023-01-15T13:16:44.707Z,76.67
2023-01-15T13:19:49.480Z,75.39
2023-01-15T13:22:28.108Z,75.40
2023-01-15T13:25:00.682Z,76.34
2023-01-15T13:27:36.317Z,75.14
2023-01-15T13:30:26.392Z,75.98
2023-01-15T13:32:58.565Z,75.49
2023-01-15T13:35:39.023Z,75.82
2023-01-15T13:38:16.128Z,75.53
2023-01-15T13:40:50.512Z,75.63
2023-01-15T13:43:41.272Z,76.87
2023-01-15T13:46:12.048Z,75.55
2023-01-15T13:48:49.688Z,76.60
2023-01-15T13:51:43.213Z,75.99
2023-01-15T13:54:16.762Z,77.53
2023-01-15T13:56:44.682Z,77.63
2023-01-15T13:59:34.628Z,77.06
2023-01-15T14:02:01.348Z,77.56
2023-01-15T14:04:37.696Z,77.60
2023-01-15T14:07:05.916Z,78.00
2023-01-15T14:09:34.682Z,77.81
2023-01-15T14:12:21.848Z,77.72
2023-01-15T14:15:07.219Z,78.24
2023-01-15T14:18:00.027Z,77.23
2023-01-15T14:20:45.087Z,78.45
2023-01-15T14:23:37.383Z,78.99
2023-01-15T14:26:44.402Z,78.17
2023-01-15T14:29:50.793Z,78.70
2023-01-15T14:32:27.321Z,79.38
2023-01-15T14:34:59.575Z,78.84
2023-01-15T14:37:31.659Z,79.48
2023-01-15T14:40:01.967Z,80.12
2023-01-15T14:42:52.331Z,79.83
2023-01-15T14:45:28.130Z,78.43
2023-01-15T14:48:02.125Z,79.04
2023-01-15T14:50:33.858Z,78.89
2023-01-15T14:53:13.991Z,79.35
2023-01-15T14:55:50.413Z,78.78
2023-01-15T14:58:35.700Z,79.81
2023-01-15T15:01:13.788Z,80.53
2023-01-15T15:03:48.358Z,80.82
2023-01-15T15:06:15.553Z,80.71
2023-01-15T15:08:44.372Z,79.10
2023-01-15T15:12:00.100Z,79.63
2023-01-15T15:14:29.970Z,79.30
2023-01-15T15:17:00.575Z,79.78
2023-01-15T15:19:34.700Z,79.67
2023-01-15T15:22:06.525Z,79.89
2023-01-15T15:24:44.071Z,79.07
2023-01-15T15:27:37.155Z,79.86
2023-01-15T15:30:06.167Z,79.41
2023-01-15T15:32:45.039Z,79.55
2023-01-15T15:35:25.815Z,79.13
2023-01-15T15:37:53.614Z,78.28
2023-01-15T15:40:25.411Z,78.32
2023-01-15T15:43:31.649Z,77.71
2023-01-15T15:46:17.287Z,78.38
2023-01-15T15:48:53.282Z,78.09
2023-01-15T15:51:25.887Z,77.81
2023-01-15T15:54:10.356Z,78.62
2023-01-15T15:56:39.571Z,78.36
2023-01-15T15:59:06.761Z,78.81
2023-01-15T16:01:39.832Z,78.36
2023-01-15T16:04:07.221Z,78.65
2023-01-15T16:06:34.944Z,78.14
2023-01-15T16:09:04.754Z,78.65
2023-01-15T16:11:33.403Z,78.23
2023-01-15T16:14:04.894Z,77.92
2023-01-15T16:16:32.317Z,78.12
2023-01-15T16:19:00.695Z,78.23
2023-01-15T16:21:33.177Z,78.83
2023-01-15T16:24:02.755Z,78.12
2023-01-15T16:26:37.304Z,78.01
2023-01-15T16:29:06.537Z,78.60
2023-01-15T16:31:37.770Z,78.17
2023-01-15T16:34:05.539Z,77.13
2023-01-15T16:36:45.339Z,78.16
2023-01-15T16:39:26.352Z,78.56
2023-01-15T16:41:58.083Z,77.65
2023-01-15T16:44:30.729Z,76.67
2023-01-15T16:47:00.980Z,77.48
2023-01-15T16:49:33.591Z,77.74
2023-01-15T16:52:02.534Z,77.76
2023-01-15T16:54:32.080Z,77.97
2023-01-15T16:57:04.811Z,77.75
2023-01-15T16:59:31.837Z,77.17
2023-01-15T17:02:16.709Z,77.58
2023-01-15T17:04:47.942Z,78.03
2023-01-15T17:07:27.858Z,78.20
2023-01-15T17:09:58.011Z,78.10
2023-01-15T17:12:34.356Z,78.29
2023-01-15T17:15:26.651Z,77.98
2023-01-15T17:17:55.505Z,79.16
2023-01-15T17:20:27.941Z,79.03
2023-01-15T17:22:55.635Z,79.78
2023-01-15T17:25:27.778Z,79.80
2023-01-15T17:27:55.946Z,78.67
2023-01-15T17:30:30.714Z,79.44
2023-01-15T17:32:58.440Z,79.22
2023-01-15T17:35:27.108Z,79.18
2023-01-15T17:37:53.928Z,79.78
2023-01-15T17:40:20.873Z,80.34
2023-01-15T17:42:47.558Z,80.08
2023-01-15T17:45:23.205Z,80.65
2023-01-15T17:47:50.149Z,80.56
2023-01-15T17:50:17.692Z,80.75
2023-01-15T17:52:45.021Z,80.86
2023-01-15T17:55:34.708Z,80.66
2023-01-15T17:58:20.056Z,81.16
2023-01-15T18:01:06.745Z,81.02
2023-01-15T18:03:54.172Z,80.20
2023-01-15T18:06:22.120Z,81.19
2023-01-15T18:08:53.736Z,81.27
2023-01-15T18:11:20.351Z,81.32
2023-01-15T18:13:46.968Z,81.32
2023-01-15T18:16:13.724Z,80.93
2023-01-15T18:18:40.390Z,81.59
2023-01-15T18:21:06.978Z,81.66
2023-01-15T18:23:35.179Z,81.15
2023-01-15T18:26:08.758Z,81.32
2023-01-15T18:28:38.650Z,81.79
2023-01-15T18:31:06.720Z,80.89
2023-01-15T18:33:33.804Z,80.81
2023-01-15T18:36:14.747Z,80.54
2023-01-15T18:38:47.522Z,80.54
2023-01-15T18:41:35.338Z,81.63
2023-01-15T18:44:22.137Z,82.81
2023-01-15T18:46:52.635Z,82.57
2023-01-15T18:49:19.801Z,82.19
2023-01-15T18:52:06.574Z,81.83
2023-01-15T18:54:33.143Z,81.82
2023-01-15T18:56:59.937Z,81.43
2023-01-15T18:59:26.593Z,81.99
2023-01-15T19:01:53.516Z,82.71
2023-01-15T19:04:20.500Z,82.75
2023-01-15T19:06:47.630Z,82.80
2023-01-15T19:09:16.664Z,81.41
2023-01-15T19:11:44.341Z,81.97
2023-01-15T19:14:29.506Z,81.20
2023-01-15T19:17:14.498Z,81.52
2023-01-15T19:19:43.234Z,80.79
2023-01-15T19:22:28.883Z,80.76
2023-01-15T19:24:55.432Z,80.78
2023-01-15T19:27:22.406Z,81.12
2023-01-15T19:29:49.185Z,81.39
2023-01-15T19:32:15.785Z,81.39
2023-01-15T19:34:42.338Z,81.47
2023-01-15T19:37:08.969Z,80.74
2023-01-15T19:39:35.568Z,81.93
2023-01-15T19:42:20.546Z,81.81
2023-01-15T19:45:05.651Z,82.53
2023-01-15T19:47:56.994Z,82.25
2023-01-15T19:50:33.140Z,83.03
2023-01-15T19:52:59.760Z,82.25
2023-01-15T19:55:29.491Z,82.69
2023-01-15T19:58:05.631Z,82.68
2023-01-15T20:00:36.763Z,83.41
2023-01-15T20:03:04.726Z,82.59
2023-01-15T20:05:32.529Z,82.84
2023-01-15T20:07:59.460Z,82.66
2023-01-15T20:10:28.327Z,82.50
2023-01-15T20:16:39.245Z,84.98
2023-01-15T20:19:05.759Z,84.38
2023-01-15T20:21:32.309Z,84.89
2023-01-15T20:23:58.862Z,84.72
2023-01-15T20:26:27.571Z,85.43
2023-01-15T20:28:54.219Z,85.85
2023-01-15T20:31:21.694Z,85.46
2023-01-15T20:33:48.349Z,85.35
2023-01-15T20:36:15.313Z,85.10
2023-01-15T20:38:42.026Z,84.87
2023-01-15T20:41:29.222Z,85.25
2023-01-15T20:44:14.638Z,86.72
2023-01-15T20:46:41.233Z,86.43
2023-01-15T20:49:27.630Z,86.86
2023-01-15T20:51:55.488Z,87.56
2023-01-15T20:54:22.936Z,87.13
2023-01-15T20:56:49.722Z,87.06
2023-01-15T20:59:16.355Z,87.09
2023-01-15T21:01:43.120Z,87.42
2023-01-15T21:04:10.607Z,88.84
2023-01-15T21:06:37.316Z,88.18
2023-01-15T21:09:03.932Z,87.13
2023-01-15T21:11:30.471Z,87.86
2023-01-15T21:13:57.089Z,88.49
2023-01-15T21:16:23.645Z,87.89
2023-01-15T21:18:50.968Z,87.38
2023-01-15T21:21:19.562Z,87.48
2023-01-15T21:23:46.409Z,88.14
2023-01-15T21:26:14.271Z,87.33
2023-01-15T21:28:40.921Z,87.72
2023-01-15T21:31:09.213Z,87.16
2023-01-15T21:33:36.432Z,87.03
2023-01-15T21:36:08.069Z,86.98
2023-01-15T21:38:35.010Z,87.01
2023-01-15T21:41:13.428Z,89.31
2023-01-15T21:43:59.015Z,92.83
2023-01-15T21:46:28.471Z,94.50
2023-01-15T21:48:56.403Z,98.23
2023-01-15T21:51:23.686Z,100.00
2023-01-15T21:53:50.514Z,100.00
2023-01-15T21:56:17.326Z,100.00
2023-01-15T21:58:44.006Z,100.00
2023-01-15T22:01:15.839Z,98.57
2023-01-15T22:03:42.443Z,98.58
2023-01-15T22:06:10.624Z,99.19
2023-01-15T22:08:37.782Z,97.15
2023-01-15T22:11:09.393Z,95.97
2023-01-15T22:13:37.513Z,97.48
2023-01-15T22:16:04.537Z,95.77
2023-01-15T22:18:32.946Z,95.82
2023-01-15T22:21:01.267Z,95.86
2023-01-15T22:23:28.005Z,96.22
2023-01-15T22:25:55.305Z,95.58
2023-01-15T22:28:22.055Z,93.61
2023-01-15T22:30:48.634Z,94.37
2023-01-15T22:33:16.118Z,93.49
2023-01-15T22:35:42.740Z,93.12
2023-01-15T22:38:09.334Z,91.14
2023-01-15T22:40:36.252Z,92.02
2023-01-15T22:43:02.852Z,90.60
2023-01-15T22:45:29.560Z,89.90
2023-01-15T22:47:56.098Z,90.57
2023-01-15T22:50:22.717Z,90.53
2023-01-15T22:52:49.225Z,91.05
2023-01-15T22:55:16.022Z,90.74
2023-01-15T22:57:42.648Z,89.41
2023-01-15T23:00:09.966Z,90.74
2023-01-15T23:02:54.416Z,89.89
2023-01-15T23:05:22.797Z,88.87
2023-01-15T23:07:50.128Z,89.09
2023-01-15T23:10:16.962Z,89.27
2023-01-15T23:12:43.596Z,88.79
2023-01-15T23:15:15.432Z,88.25
2023-01-15T23:17:43.881Z,88.97
2023-01-15T23:20:13.079Z,88.62
2023-01-15T23:22:39.979Z,89.36
2023-01-15T23:25:11.202Z,88.91
2023-01-15T23:27:38.605Z,88.63
2023-01-15T23:30:05.856Z,89.22
2023-01-15T23:32:32.457Z,88.83
2023-01-15T23:34:59.017Z,88.72
2023-01-15T23:37:25.565Z,89.04
2023-01-15T23:39:52.209Z,88.23
2023-01-15T23:42:37.436Z,87.74
2023-01-15T23:45:23.096Z,88.30
2023-01-15T23:47:49.689Z,88.99
2023-01-15T23:50:16.342Z,89.30
2023-01-15T23:52:42.975Z,89.10
2023-01-15T23:55:10.159Z,90.14
2023-01-15T23:57:36.997Z,90.77
